Time;durP1;ratioP1;P1;durP2;ratioP2;P2;SDS_P1;SDS_P2;PMS_P1;PMS_P2;Temp;Humidity;BMP_temperature;BMP_pressure;BME280_temperature;BME280_humidity;BME280_pressure;Samples;Min_cycle;Max_cycle;Signal;HPM_P1;HPM_P2
2022/08/06 00:00:17;;;;;;;;;;;19.20;99.90;;;;;;5072317;28;20105;-65
2022/08/06 00:02:53;;;;;;;12.32;5.60;;;19.20;99.90;;;;;;5069861;28;19928;-65
2022/08/06 00:05:21;;;;;;;7.10;5.13;;;19.00;99.90;;;;;;5056263;28;20086;-65
2022/08/06 00:07:58;;;;;;;9.35;5.60;;;18.90;99.90;;;;;;5086379;28;20051;-65
2022/08/06 00:10:28;;;;;;;6.70;4.95;;;18.90;99.90;;;;;;5077247;28;20044;-67
2022/08/06 00:13:00;;;;;;;6.78;4.85;;;18.90;99.90;;;;;;5088579;28;20387;-65
2022/08/06 00:15:31;;;;;;;7.25;4.88;;;18.90;99.90;;;;;;5077523;28;20502;-66
2022/08/06 00:18:19;;;;;;;6.80;4.35;;;18.70;99.90;;;;;;5065520;28;20033;-65
2022/08/06 00:20:46;;;;;;;10.18;4.93;;;18.60;99.90;;;;;;5076361;28;20040;-67
2022/08/06 00:23:17;;;;;;;8.70;4.63;;;18.50;99.90;;;;;;5081755;28;20048;-66
2022/08/06 00:25:45;;;;;;;6.53;4.63;;;18.40;99.90;;;;;;5085632;28;20059;-66
2022/08/06 00:28:23;;;;;;;9.05;4.65;;;18.40;99.90;;;;;;5084166;28;20085;-66
2022/08/06 00:31:00;;;;;;;8.52;4.90;;;18.40;99.90;;;;;;5076270;28;20056;-67
2022/08/06 00:33:39;;;;;;;7.72;4.50;;;18.40;99.90;;;;;;5061361;28;20129;-65
2022/08/06 00:36:18;;;;;;;10.25;4.50;;;18.40;99.90;;;;;;5070261;28;20135;-66
2022/08/06 00:38:54;;;;;;;6.50;4.15;;;18.40;99.90;;;;;;5060947;28;20055;-66
2022/08/06 00:41:22;;;;;;;5.93;4.00;;;18.40;99.90;;;;;;5070109;28;20498;-66
2022/08/06 00:44:08;;;;;;;5.95;3.95;;;18.50;99.90;;;;;;5062137;28;20044;-66
2022/08/06 00:46:38;;;;;;;5.97;4.03;;;18.40;99.90;;;;;;5073026;28;20097;-67
2022/08/06 00:49:07;;;;;;;7.40;4.75;;;18.40;99.90;;;;;;5079666;28;20052;-66
2022/08/06 00:51:39;;;;;;;8.00;4.20;;;18.40;99.90;;;;;;5071901;28;20085;-66
2022/08/06 00:54:21;;;;;;;6.80;4.95;;;18.40;99.90;;;;;;5052419;28;20490;-66
2022/08/06 00:57:03;;;;;;;5.45;3.88;;;18.40;99.90;;;;;;5071645;28;20052;-65
2022/08/06 00:59:38;;;;;;;6.95;3.55;;;18.30;99.90;;;;;;5082239;28;20431;-66
2022/08/06 01:02:06;;;;;;;5.50;3.80;;;18.30;99.90;;;;;;5062871;28;20422;-66
2022/08/06 01:04:37;;;;;;;4.78;3.35;;;18.20;99.90;;;;;;5052031;28;20068;-66
2022/08/06 01:07:04;;;;;;;7.78;3.80;;;18.10;99.90;;;;;;5069870;28;20044;-66
2022/08/06 01:09:36;;;;;;;6.55;3.55;;;18.10;99.90;;;;;;5078038;28;20456;-67
2022/08/06 01:12:25;;;;;;;6.38;3.63;;;17.90;99.90;;;;;;5081840;28;20453;-66
2022/08/06 01:15:04;;;;;;;4.15;3.50;;;17.80;99.90;;;;;;5067010;28;20041;-67
2022/08/06 01:18:00;;;;;;;7.93;3.75;;;17.90;99.90;;;;;;5078014;28;20172;-67
2022/08/06 01:20:54;;;;;;;6.28;3.55;;;17.80;99.90;;;;;;5064182;28;20414;-66
2022/08/06 01:24:05;;;;;;;4.90;3.22;;;17.70;99.90;;;;;;5074993;28;20033;-66
2022/08/06 01:27:03;;;;;;;4.50;3.22;;;17.70;99.90;;;;;;5075439;28;20583;-65
2022/08/06 01:29:39;;;;;;;5.22;3.42;;;17.60;99.90;;;;;;5072913;28;20520;-65
2022/08/06 01:32:15;;;;;;;3.80;3.30;;;17.60;99.90;;;;;;5053181;28;20494;-66
2022/08/06 01:34:59;;;;;;;6.97;3.90;;;17.60;99.90;;;;;;5064690;28;20423;-65
2022/08/06 01:37:36;;;;;;;6.18;3.50;;;17.60;99.90;;;;;;5078307;28;20056;-65
2022/08/06 01:40:15;;;;;;;6.03;3.50;;;17.60;99.90;;;;;;5077774;28;20488;-66
2022/08/06 01:42:44;;;;;;;5.72;3.38;;;17.60;99.90;;;;;;5070732;28;20528;-66
2022/08/06 01:45:25;;;;;;;5.05;3.50;;;17.60;99.90;;;;;;5080870;28;20403;-65
2022/08/06 01:48:17;;;;;;;4.97;3.80;;;17.60;99.90;;;;;;5081245;28;20475;-66
2022/08/06 01:50:48;;;;;;;4.72;3.58;;;17.60;99.90;;;;;;5083633;28;20052;-66
2022/08/06 01:53:22;;;;;;;5.80;3.35;;;17.60;99.90;;;;;;5084816;28;20461;-66
2022/08/06 01:56:11;;;;;;;4.28;3.60;;;17.70;99.90;;;;;;5084163;28;20051;-67
2022/08/06 01:58:49;;;;;;;5.65;3.67;;;17.70;99.90;;;;;;5084113;28;20409;-66
2022/08/06 02:01:18;;;;;;;7.20;3.72;;;17.60;99.90;;;;;;5062733;28;21074;-66
2022/08/06 02:03:51;;;;;;;4.57;3.60;;;17.60;99.90;;;;;;5067764;28;20132;-66
2022/08/06 02:06:41;;;;;;;5.50;3.33;;;17.50;99.90;;;;;;5070313;28;20188;-66
2022/08/06 02:09:18;;;;;;;5.70;3.80;;;17.50;99.90;;;;;;5075767;28;20055;-66
2022/08/06 02:12:14;;;;;;;5.35;3.85;;;17.50;99.90;;;;;;5061657;28;20044;-66
2022/08/06 02:14:57;;;;;;;6.22;3.90;;;17.60;99.90;;;;;;5073095;28;20213;-66
2022/08/06 02:17:28;;;;;;;7.00;4.50;;;17.50;99.90;;;;;;5074746;28;20048;-66
2022/08/06 02:20:18;;;;;;;5.47;3.97;;;17.50;99.90;;;;;;5079945;28;20120;-66
2022/08/06 02:23:07;;;;;;;5.20;3.90;;;17.40;99.90;;;;;;5066716;28;20093;-66
2022/08/06 02:25:41;;;;;;;5.20;3.90;;;17.30;99.90;;;;;;5084540;28;20048;-66
2022/08/06 02:28:12;;;;;;;5.40;3.90;;;17.30;99.90;;;;;;5075108;28;20071;-66
2022/08/06 02:30:54;;;;;;;7.35;3.92;;;17.30;99.90;;;;;;5083145;28;20040;-66
2022/08/06 02:33:22;;;;;;;5.90;3.60;;;17.30;99.90;;;;;;5072444;28;20050;-66
2022/08/06 02:36:18;;;;;;;7.30;4.05;;;17.30;99.90;;;;;;5076024;28;20028;-66
2022/08/06 02:39:10;;;;;;;5.55;3.80;;;17.20;99.90;;;;;;5056330;28;20411;-67
2022/08/06 02:42:00;;;;;;;6.28;3.85;;;17.10;99.90;;;;;;5079545;28;20060;-66
2022/08/06 02:44:52;;;;;;;5.35;3.67;;;17.10;99.90;;;;;;5079435;28;20071;-66
2022/08/06 02:47:50;;;;;;;5.35;3.60;;;17.00;99.90;;;;;;5070934;28;20311;-66
2022/08/06 02:50:34;;;;;;;6.32;3.83;;;17.00;99.90;;;;;;5072911;28;20103;-66
2022/08/06 02:53:12;;;;;;;4.57;3.80;;;16.90;99.90;;;;;;5066255;28;20105;-66
2022/08/06 02:55:59;;;;;;;4.95;3.70;;;16.90;99.90;;;;;;5068593;28;20048;-66
2022/08/06 02:58:44;;;;;;;9.00;3.72;;;16.90;99.90;;;;;;5070387;28;20041;-66
2022/08/06 03:01:43;;;;;;;5.57;3.78;;;16.80;99.90;;;;;;5054017;28;20067;-66
2022/08/06 03:04:12;;;;;;;5.25;3.88;;;16.80;99.90;;;;;;5067859;28;20511;-66
2022/08/06 03:06:44;;;;;;;7.15;3.92;;;16.70;99.90;;;;;;5064617;28;20047;-66
2022/08/06 03:09:15;;;;;;;6.43;3.63;;;16.70;99.90;;;;;;5075450;28;20044;-68
2022/08/06 03:11:45;;;;;;;5.78;3.95;;;16.70;99.90;;;;;;5083170;28;20495;-66
2022/08/06 03:14:16;;;;;;;4.87;3.60;;;16.70;99.90;;;;;;5085097;28;20040;-66
2022/08/06 03:17:05;;;;;;;5.07;3.97;;;16.60;99.90;;;;;;5080358;28;20155;-66
2022/08/06 03:19:34;;;;;;;5.97;4.00;;;16.60;99.90;;;;;;5066856;28;20101;-66
2022/08/06 03:22:24;;;;;;;5.95;3.90;;;16.60;99.90;;;;;;5063781;28;20037;-66
2022/08/06 03:25:07;;;;;;;5.55;3.65;;;16.60;99.90;;;;;;5077396;28;20087;-66
2022/08/06 03:27:37;;;;;;;5.63;4.07;;;16.70;99.90;;;;;;5073952;28;20056;-66
2022/08/06 03:30:16;;;;;;;5.97;3.75;;;16.60;99.90;;;;;;5072372;28;20498;-66
2022/08/06 03:33:09;;;;;;;5.65;4.28;;;16.60;99.90;;;;;;5072482;28;20068;-67
2022/08/06 03:36:00;;;;;;;6.28;4.05;;;16.50;99.90;;;;;;5062057;28;20047;-66
2022/08/06 03:38:36;;;;;;;4.97;4.18;;;16.50;99.90;;;;;;5071932;28;20048;-66
2022/08/06 03:41:06;;;;;;;6.43;4.18;;;16.40;99.90;;;;;;5070723;28;20137;-64
2022/08/06 03:43:35;;;;;;;6.47;4.50;;;16.40;99.90;;;;;;5065308;28;20142;-65
2022/08/06 03:46:46;;;;;;;6.43;4.25;;;16.40;99.90;;;;;;5063351;28;20040;-65
2022/08/06 03:49:18;;;;;;;;;;;16.30;99.90;;;;;;5049691;28;20284;-65
2022/08/06 03:52:00;;;;;;;5.38;4.40;;;16.20;99.90;;;;;;5064991;28;19923;-65
2022/08/06 03:54:32;;;;;;;;;;;16.20;99.90;;;;;;5078079;28;20376;-64
2022/08/06 03:57:08;;;;;;;7.07;4.50;;;16.10;99.90;;;;;;5059641;28;20382;-65
2022/08/06 03:59:42;;;;;;;9.00;4.53;;;16.10;99.90;;;;;;5069126;28;20068;-66
2022/08/06 04:02:37;;;;;;;5.95;4.57;;;16.00;99.90;;;;;;5070587;28;20608;-65
2022/08/06 04:05:16;;;;;;;6.53;4.40;;;16.00;99.90;;;;;;5057268;28;20618;-65
2022/08/06 04:07:50;;;;;;;8.77;4.85;;;16.00;99.90;;;;;;5075045;28;20055;-65
2022/08/06 04:10:23;;;;;;;7.80;5.35;;;16.00;99.90;;;;;;5071359;28;20477;-66
2022/08/06 04:13:04;;;;;;;7.82;4.57;;;16.00;99.90;;;;;;5071432;28;20479;-66
2022/08/06 04:15:53;;;;;;;7.55;4.70;;;15.90;99.90;;;;;;5070355;28;20032;-65
2022/08/06 04:18:27;;;;;;;5.05;4.10;;;15.90;99.90;;;;;;5065519;28;20091;-66
2022/08/06 04:20:59;;;;;;;7.63;4.70;;;16.00;99.90;;;;;;5067291;28;20049;-66
2022/08/06 04:23:47;;;;;;;6.50;4.07;;;15.90;99.90;;;;;;5069059;28;20491;-66
2022/08/06 04:26:19;;;;;;;5.00;4.25;;;15.90;99.90;;;;;;5065665;28;20302;-66
2022/08/06 04:28:47;;;;;;;;;;;15.90;99.90;;;;;;5066875;28;20472;-65
2022/08/06 04:31:27;;;;;;;7.03;4.55;;;15.90;99.90;;;;;;5081650;28;19924;-65
2022/08/06 04:34:20;;;;;;;6.63;4.60;;;15.90;99.90;;;;;;5070433;28;20040;-66
2022/08/06 04:36:54;;;;;;;6.28;4.75;;;15.90;99.90;;;;;;5086842;28;20715;-66
2022/08/06 04:39:22;;;;;;;5.47;4.32;;;15.90;99.90;;;;;;5066185;28;20043;-65
2022/08/06 04:42:03;;;;;;;10.80;5.03;;;15.90;99.90;;;;;;5069408;28;20036;-66
2022/08/06 04:44:34;;;;;;;9.00;4.90;;;15.90;99.90;;;;;;5068929;28;20048;-65
2022/08/06 04:47:02;;;;;;;8.15;4.43;;;15.90;99.90;;;;;;5070202;28;20493;-66
2022/08/06 04:49:29;;;;;;;7.75;4.90;;;15.90;99.90;;;;;;5060508;28;20055;-66
2022/08/06 04:52:28;;;;;;;7.05;4.50;;;15.90;99.90;;;;;;5087116;28;20032;-66
2022/08/06 04:55:19;;;;;;;8.02;4.60;;;15.90;99.90;;;;;;5081818;28;20466;-67
2022/08/06 04:58:01;;;;;;;7.85;4.70;;;16.00;99.90;;;;;;5079043;28;20367;-66
2022/08/06 05:00:42;;;;;;;8.25;4.50;;;16.00;99.90;;;;;;5070104;28;20079;-65
2022/08/06 05:03:30;;;;;;;;;;;16.10;99.90;;;;;;5063643;28;20075;-66
2022/08/06 05:06:22;;;;;;;9.93;4.55;;;16.10;99.90;;;;;;5051807;28;19925;-66
2022/08/06 05:08:57;;;;;;;5.93;4.38;;;16.20;99.90;;;;;;5063145;28;20467;-65
2022/08/06 05:11:38;;;;;;;4.28;3.88;;;16.20;99.90;;;;;;5069788;28;20083;-66
2022/08/06 05:14:30;;;;;;;6.38;4.00;;;16.30;99.90;;;;;;5075824;28;20130;-65
2022/08/06 05:17:01;;;;;;;8.82;4.15;;;16.30;99.90;;;;;;5076053;28;20116;-65
2022/08/06 05:19:38;;;;;;;6.40;3.72;;;16.20;99.90;;;;;;5082285;28;20050;-66
2022/08/06 05:22:08;;;;;;;6.95;3.67;;;16.30;99.90;;;;;;5074389;28;20142;-66
2022/08/06 05:24:40;;;;;;;6.32;3.65;;;16.30;99.90;;;;;;5073843;28;20054;-65
2022/08/06 05:27:28;;;;;;;5.35;3.67;;;16.30;99.90;;;;;;5079891;28;20227;-66
2022/08/06 05:30:15;;;;;;;5.45;3.90;;;16.30;99.90;;;;;;5083660;28;20044;-66
2022/08/06 05:32:43;;;;;;;4.93;3.55;;;16.30;99.90;;;;;;5073650;28;20068;-65
2022/08/06 05:35:12;;;;;;;6.05;3.90;;;16.40;99.90;;;;;;5075160;28;20039;-65
2022/08/06 05:37:44;;;;;;;6.45;3.88;;;16.40;99.90;;;;;;5079764;28;20209;-65
2022/08/06 05:40:33;;;;;;;5.43;3.40;;;16.50;99.90;;;;;;5050257;28;20411;-66
2022/08/06 05:43:22;;;;;;;4.80;3.50;;;16.50;99.90;;;;;;5075711;28;20127;-66
2022/08/06 05:45:53;;;;;;;7.80;3.88;;;16.60;99.90;;;;;;5082777;28;20575;-66
2022/08/06 05:48:22;;;;;;;3.88;3.08;;;16.60;99.90;;;;;;5080554;28;20055;-66
2022/08/06 05:51:04;;;;;;;4.75;3.55;;;16.60;99.90;;;;;;5066758;28;20062;-66
2022/08/06 05:53:48;;;;;;;5.22;3.22;;;16.70;99.90;;;;;;5082035;28;20597;-66
2022/08/06 05:56:38;;;;;;;7.35;3.55;;;16.80;99.90;;;;;;5084390;28;20037;-66
2022/08/06 05:59:27;;;;;;;5.60;3.60;;;16.80;99.90;;;;;;5087295;28;20508;-66
2022/08/06 06:02:16;;;;;;;4.00;3.28;;;16.90;99.90;;;;;;5080431;28;20046;-66
2022/08/06 06:04:47;;;;;;;6.72;3.28;;;17.00;99.90;;;;;;5054597;28;20499;-66
2022/08/06 06:07:35;;;;;;;5.05;3.58;;;17.10;99.90;;;;;;5071031;28;20043;-65
2022/08/06 06:10:24;;;;;;;4.43;3.22;;;17.20;99.90;;;;;;5070210;28;20040;-65
2022/08/06 06:12:52;;;;;;;6.30;3.40;;;17.30;99.90;;;;;;5082497;28;20139;-65
2022/08/06 06:15:19;;;;;;;6.70;4.07;;;17.40;99.90;;;;;;5073951;28;20514;-66
2022/08/06 06:18:45;;;;;;;6.40;4.55;;;17.50;99.90;;;;;;5066110;28;20031;-66
2022/08/06 06:21:40;;;;;;;5.60;3.50;;;17.60;99.90;;;;;;4985530;28;20046;-66
2022/08/06 06:24:29;;;;;;;5.03;3.65;;;17.70;99.90;;;;;;4999101;28;20057;-66
2022/08/06 06:27:18;;;;;;;5.45;3.70;;;17.80;99.90;;;;;;4978554;28;20074;-66
2022/08/06 06:30:08;;;;;;;4.50;3.50;;;17.80;99.90;;;;;;4992166;28;20060;-65
2022/08/06 06:33:10;;;;;;;5.68;3.75;;;17.80;99.90;;;;;;4992936;28;20424;-66
2022/08/06 06:35:58;;;;;;;5.30;3.40;;;17.70;99.90;;;;;;4985824;28;20050;-66
2022/08/06 06:38:32;;;;;;;5.15;3.50;;;17.70;99.90;;;;;;4990329;28;20134;-66
2022/08/06 06:41:13;;;;;;;5.10;3.40;;;17.70;99.90;;;;;;4987754;28;20129;-66
2022/08/06 06:44:00;;;;;;;4.20;3.10;;;17.80;99.90;;;;;;4987999;28;20092;-66
2022/08/06 06:46:32;;;;;;;;;;;17.90;99.90;;;;;;4994016;28;20058;-66
2022/08/06 06:49:39;;;;;;;5.95;3.53;;;17.90;99.90;;;;;;4984946;28;20387;-66
2022/08/06 06:52:41;;;;;;;4.13;3.50;;;18.00;99.90;;;;;;4974915;28;20413;-70
2022/08/06 06:55:21;;;;;;;5.88;3.70;;;18.00;99.90;;;;;;4974337;28;20511;-67
2022/08/06 06:58:34;;;;;;;5.05;3.88;;;18.10;99.90;;;;;;5022968;28;20510;-67
2022/08/06 07:01:05;;;;;;;10.02;4.60;;;18.20;99.90;;;;;;5070300;28;20071;-67
2022/08/06 07:03:54;;;;;;;7.97;5.68;;;18.10;99.90;;;;;;5067034;28;20171;-67
2022/08/06 07:06:23;;;;;;;6.28;4.72;;;18.10;99.90;;;;;;5068002;28;20060;-68
2022/08/06 07:09:13;;;;;;;5.10;3.70;;;18.30;99.90;;;;;;5075902;28;20498;-67
2022/08/06 07:12:02;;;;;;;3.85;3.45;;;18.40;99.90;;;;;;5076009;28;20068;-67
2022/08/06 07:14:33;;;;;;;6.32;3.63;;;18.50;99.90;;;;;;5084060;28;20484;-67
2022/08/06 07:17:03;;;;;;;5.38;3.28;;;18.60;99.90;;;;;;5066746;28;20394;-67
2022/08/06 07:19:54;;;;;;;6.90;3.65;;;18.60;99.90;;;;;;5074161;28;20033;-67
2022/08/06 07:22:23;;;;;;;3.47;3.17;;;18.60;99.90;;;;;;5052704;28;20079;-67
2022/08/06 07:24:57;;;;;;;4.68;3.28;;;18.70;99.90;;;;;;5074129;28;20090;-67
2022/08/06 07:27:32;;;;;;;5.32;3.30;;;18.70;99.90;;;;;;5074473;28;20496;-66
2022/08/06 07:30:08;;;;;;;4.57;3.40;;;18.60;99.90;;;;;;5075934;28;20048;-67
2022/08/06 07:32:36;;;;;;;4.85;3.30;;;18.70;99.90;;;;;;5058883;28;20090;-67
2022/08/06 07:35:05;;;;;;;6.90;3.70;;;18.60;99.90;;;;;;5075724;28;20547;-67
2022/08/06 07:38:05;;;;;;;4.78;3.30;;;18.70;99.90;;;;;;5069413;28;20384;-67
2022/08/06 07:40:43;;;;;;;3.55;3.25;;;18.90;99.90;;;;;;5063802;28;20032;-68
2022/08/06 07:43:24;;;;;;;4.80;3.47;;;18.90;99.90;;;;;;5067023;28;20048;-67
2022/08/06 07:46:02;;;;;;;4.25;3.40;;;19.00;99.90;;;;;;5083428;28;20044;-66
2022/08/06 07:48:37;;;;;;;3.90;3.50;;;19.10;99.90;;;;;;5050446;28;20070;-67
2022/08/06 07:51:06;;;;;;;5.82;3.60;;;19.20;99.90;;;;;;5077071;28;20114;-67
2022/08/06 07:53:37;;;;;;;4.85;3.70;;;19.10;99.90;;;;;;5065675;28;20036;-67
2022/08/06 07:56:24;;;;;;;6.22;3.70;;;19.30;99.90;;;;;;5066403;28;20467;-67
2022/08/06 07:58:54;;;;;;;4.18;3.63;;;19.40;99.90;;;;;;5068705;28;20538;-67
2022/08/06 08:01:25;;;;;;;6.05;3.47;;;19.50;99.90;;;;;;5070674;28;20051;-67
2022/08/06 08:07:06;;;;;;;7.35;3.33;;;19.70;99.90;;;;;;5053491;28;20476;-67
2022/08/06 08:09:41;;;;;;;5.45;3.60;;;19.80;99.90;;;;;;5065301;28;20052;-69
2022/08/06 08:12:29;;;;;;;4.45;3.35;;;19.80;99.90;;;;;;5076457;28;20508;-67
2022/08/06 08:15:06;;;;;;;5.22;3.47;;;20.00;99.90;;;;;;5070302;28;20033;-68
2022/08/06 08:17:48;;;;;;;4.30;3.40;;;20.10;99.90;;;;;;5083861;28;20042;-67
2022/08/06 08:20:29;;;;;;;5.90;3.40;;;20.20;99.90;;;;;;5078455;28;20080;-67
2022/08/06 08:23:04;;;;;;;5.43;3.90;;;20.30;99.90;;;;;;5062978;28;20083;-67
2022/08/06 08:25:33;;;;;;;5.53;4.10;;;20.40;99.90;;;;;;5071640;28;20464;-67
2022/08/06 08:28:10;;;;;;;4.15;3.55;;;20.50;99.90;;;;;;5066943;28;20141;-70
2022/08/06 08:30:44;;;;;;;4.32;3.70;;;20.50;99.90;;;;;;5087433;28;20528;-67
2022/08/06 08:33:19;;;;;;;4.85;3.90;;;20.60;99.90;;;;;;5070418;28;20482;-67
2022/08/06 08:35:48;;;;;;;4.07;3.67;;;20.80;99.90;;;;;;5061626;28;20094;-67
2022/08/06 08:38:32;;;;;;;4.68;3.90;;;20.90;99.90;;;;;;5067534;28;20052;-67
2022/08/06 08:41:11;;;;;;;6.25;3.90;;;20.70;99.90;;;;;;5062540;28;20047;-67
2022/08/06 08:43:48;;;;;;;6.45;4.10;;;20.80;99.90;;;;;;5062061;28;20062;-67
2022/08/06 08:46:35;;;;;;;4.85;3.70;;;20.90;99.90;;;;;;5063534;28;20376;-67
2022/08/06 08:49:19;;;;;;;4.50;3.50;;;21.10;99.90;;;;;;5063521;28;20045;-68
2022/08/06 08:51:50;;;;;;;3.67;3.30;;;21.30;99.90;;;;;;5070262;28;20117;-65
2022/08/06 08:54:22;;;;;;;6.60;3.72;;;21.30;99.90;;;;;;5068774;28;20399;-67
2022/08/06 08:56:52;;;;;;;3.85;3.40;;;21.30;99.90;;;;;;5058982;28;20041;-67
2022/08/06 08:59:40;;;;;;;4.35;3.30;;;21.40;99.90;;;;;;5067245;28;20497;-67
2022/08/06 09:02:28;;;;;;;5.20;3.60;;;21.40;99.90;;;;;;5078543;28;20533;-67
2022/08/06 09:04:57;;;;;;;4.28;3.60;;;21.50;99.90;;;;;;5059695;28;20245;-66
2022/08/06 09:07:27;;;;;;;5.40;4.45;;;21.60;99.90;;;;;;5071611;28;20541;-66
2022/08/06 09:10:07;;;;;;;5.97;4.05;;;21.60;99.90;;;;;;5069855;28;20040;-66
2022/08/06 09:12:42;;;;;;;4.63;3.90;;;21.60;99.90;;;;;;5068550;28;20044;-65
2022/08/06 09:15:15;;;;;;;4.97;3.90;;;21.60;99.90;;;;;;5065293;28;20032;-66
2022/08/06 09:17:46;;;;;;;4.20;3.80;;;21.60;99.90;;;;;;5074224;28;20044;-65
2022/08/06 09:20:36;;;;;;;6.28;3.63;;;21.70;99.90;;;;;;5059199;28;20033;-66
2022/08/06 09:23:07;;;;;;;6.07;3.63;;;21.60;99.90;;;;;;5080528;28;20043;-66
2022/08/06 09:25:42;;;;;;;11.07;3.80;;;21.40;99.90;;;;;;5074094;28;20057;-66
2022/08/06 09:28:39;;;;;;;4.78;3.72;;;21.50;99.90;;;;;;5073437;28;20044;-66
2022/08/06 09:31:10;;;;;;;5.63;4.00;;;21.70;99.90;;;;;;5060164;28;20498;-66
2022/08/06 09:34:05;;;;;;;4.78;3.67;;;21.80;99.90;;;;;;5067409;28;20040;-66
2022/08/06 09:36:55;;;;;;;11.48;7.72;;;21.80;99.90;;;;;;5056819;28;20036;-66
2022/08/06 09:39:39;;;;;;;4.72;4.07;;;21.90;99.90;;;;;;5071835;28;20040;-66
2022/08/06 09:42:46;;;;;;;4.22;3.83;;;22.30;99.90;;;;;;5066158;28;20470;-66
2022/08/06 09:45:16;;;;;;;4.45;4.05;;;22.30;99.90;;;;;;5068293;28;20055;-65
2022/08/06 09:47:47;;;;;;;4.93;4.15;;;22.30;99.90;;;;;;5078918;28;20409;-66
2022/08/06 09:50:42;;;;;;;14.45;11.38;;;22.50;99.90;;;;;;5065915;28;20095;-66
2022/08/06 09:53:14;;;;;;;5.60;5.00;;;22.70;99.90;;;;;;5063806;28;20433;-67
2022/08/06 09:55:50;;;;;;;7.18;4.50;;;22.60;99.90;;;;;;5072428;28;20445;-67
2022/08/06 09:58:35;;;;;;;7.53;4.15;;;22.50;99.90;;;;;;5061061;28;20044;-67
2022/08/06 10:01:23;;;;;;;6.78;5.72;;;22.60;99.90;;;;;;5068281;28;20051;-67
2022/08/06 10:03:56;;;;;;;5.15;4.65;;;22.60;99.90;;;;;;5069872;28;20056;-66
2022/08/06 10:07:01;;;;;;;5.32;4.60;;;23.00;99.90;;;;;;5058203;28;20056;-66
2022/08/06 10:09:37;;;;;;;6.18;4.15;;;22.90;99.90;;;;;;5061522;28;20047;-66
2022/08/06 10:12:19;;;;;;;9.68;4.55;;;22.60;99.90;;;;;;5063700;28;20507;-66
2022/08/06 10:14:53;;;;;;;5.32;4.60;;;22.50;99.90;;;;;;5075202;28;20078;-66
2022/08/06 10:17:24;;;;;;;7.40;5.18;;;22.10;99.90;;;;;;5076590;28;20047;-66
2022/08/06 10:20:12;;;;;;;6.53;5.82;;;22.30;99.90;;;;;;5070568;28;20500;-66
2022/08/06 10:22:56;;;;;;;5.65;4.22;;;22.50;99.90;;;;;;5065292;28;20129;-66
2022/08/06 10:25:27;;;;;;;6.85;5.25;;;22.70;99.90;;;;;;5073419;28;20040;-67
2022/08/06 10:27:57;;;;;;;7.50;4.50;;;22.70;99.90;;;;;;5079804;28;20043;-66
2022/08/06 10:30:28;;;;;;;5.88;3.90;;;23.00;99.90;;;;;;5083872;28;20040;-66
2022/08/06 10:33:06;;;;;;;4.72;4.20;;;22.90;99.90;;;;;;5075474;28;20044;-66
2022/08/06 10:35:46;;;;;;;6.47;3.67;;;22.70;99.90;;;;;;5066699;28;20513;-66
2022/08/06 10:38:20;;;;;;;4.50;3.90;;;22.90;99.90;;;;;;5080914;28;20044;-66
2022/08/06 10:41:05;;;;;;;4.22;3.83;;;23.20;99.90;;;;;;5060345;28;20053;-66
2022/08/06 10:43:34;;;;;;;;;;;23.60;99.90;;;;;;5073685;28;20552;-66
2022/08/06 10:46:05;;;;;;;6.00;3.67;;;23.80;99.90;;;;;;5074716;28;20457;-66
2022/08/06 10:48:37;;;;;;;5.03;4.00;;;23.90;99.90;;;;;;5080545;28;20040;-66
2022/08/06 10:51:26;;;;;;;4.10;3.70;;;23.90;99.90;;;;;;5074430;28;20048;-66
2022/08/06 10:54:15;;;;;;;6.07;3.80;;;23.90;99.90;;;;;;5064682;28;20032;-66
2022/08/06 10:56:46;;;;;;;4.30;3.70;;;23.80;99.90;;;;;;5075368;28;20124;-66
2022/08/06 10:59:15;;;;;;;3.97;3.58;;;23.70;99.90;;;;;;5079138;28;20036;-66
2022/08/06 11:02:00;;;;;;;4.68;3.60;;;23.90;99.90;;;;;;5083185;28;20119;-66
2022/08/06 11:04:54;;;;;;;4.10;3.70;;;23.80;99.90;;;;;;5072614;28;20068;-66
2022/08/06 11:07:39;;;;;;;5.68;3.42;;;24.10;99.90;;;;;;5080792;28;20452;-67
2022/08/06 11:10:51;;;;;;;3.53;3.20;;;23.90;99.90;;;;;;5064864;28;20040;-66
2022/08/06 11:13:27;;;;;;;4.50;3.43;;;24.00;99.90;;;;;;5068085;28;20489;-66
2022/08/06 11:16:25;;;;;;;4.25;3.72;;;24.10;99.90;;;;;;5068720;28;20040;-66
2022/08/06 11:19:07;;;;;;;4.70;3.45;;;24.40;99.90;;;;;;5071777;28;20036;-66
2022/08/06 11:21:45;;;;;;;5.47;3.90;;;24.00;99.90;;;;;;5062699;28;20472;-66
2022/08/06 11:24:30;;;;;;;5.38;3.50;;;24.10;99.90;;;;;;5074561;28;20048;-66
2022/08/06 11:27:04;;;;;;;4.95;3.85;;;24.00;99.90;;;;;;5073025;28;20071;-66
2022/08/06 11:30:09;;;;;;;5.07;4.13;;;23.80;99.90;;;;;;5067178;28;20117;-66
2022/08/06 11:32:51;;;;;;;4.10;3.70;;;24.30;99.30;;;;;;5060482;28;20503;-67
2022/08/06 11:35:34;;;;;;;4.60;4.07;;;24.50;99.90;;;;;;5072708;28;20501;-67
2022/08/06 11:38:42;;;;;;;4.63;4.20;;;24.40;99.90;;;;;;5072584;28;20737;-67
2022/08/06 11:41:22;;;;;;;5.82;3.80;;;24.80;98.30;;;;;;5066698;28;20426;-67
2022/08/06 11:44:10;;;;;;;4.57;3.63;;;25.00;97.20;;;;;;5073545;28;20059;-67
2022/08/06 11:46:45;;;;;;;4.82;3.88;;;24.80;97.30;;;;;;5069756;28;21280;-66
2022/08/06 11:49:37;;;;;;;5.82;4.05;;;24.80;95.80;;;;;;5072061;28;20048;-67
2022/08/06 11:52:30;;;;;;;4.10;3.70;;;24.90;97.00;;;;;;5067364;28;20056;-67
2022/08/06 11:55:11;;;;;;;3.90;3.60;;;24.80;95.30;;;;;;5063560;28;20402;-66
2022/08/06 11:58:20;;;;;;;5.15;4.05;;;24.60;95.90;;;;;;5066756;28;20037;-67
2022/08/06 12:01:00;;;;;;;4.15;3.70;;;24.80;95.90;;;;;;5079991;28;20039;-66
2022/08/06 12:03:48;;;;;;;4.13;3.72;;;25.40;95.30;;;;;;5054471;28;20132;-67
2022/08/06 12:06:23;;;;;;;4.38;3.63;;;25.90;94.30;;;;;;5067245;28;20097;-67
2022/08/06 12:09:18;;;;;;;4.57;3.90;;;26.10;93.20;;;;;;5075102;28;20518;-67
2022/08/06 12:12:24;;;;;;;4.22;3.83;;;26.60;93.00;;;;;;5053326;28;20080;-67
2022/08/06 12:14:55;;;;;;;4.55;4.10;;;27.50;92.80;;;;;;5076512;28;20389;-66
2022/08/06 12:17:24;;;;;;;3.85;3.50;;;28.00;90.10;;;;;;5081928;28;20028;-67
2022/08/06 12:20:11;;;;;;;4.30;3.90;;;27.80;88.80;;;;;;5086323;28;20071;-67
2022/08/06 12:22:50;;;;;;;3.95;3.50;;;28.10;88.70;;;;;;5081482;28;20383;-66
2022/08/06 12:25:20;;;;;;;3.75;3.45;;;28.40;86.60;;;;;;5077528;28;20079;-66
2022/08/06 12:27:47;;;;;;;4.15;3.75;;;28.80;87.50;;;;;;5081961;28;20561;-67
2022/08/06 12:30:18;;;;;;;3.58;3.28;;;29.30;80.80;;;;;;5087215;28;20505;-67
2022/08/06 12:33:06;;;;;;;4.55;3.60;;;29.60;83.90;;;;;;5059614;28;20053;-67
2022/08/06 12:35:59;;;;;;;3.70;3.40;;;30.30;81.20;;;;;;5084882;28;20139;-67
2022/08/06 12:38:29;;;;;;;4.55;3.63;;;30.60;78.10;;;;;;5079942;28;20494;-69
2022/08/06 12:40:59;;;;;;;4.80;3.50;;;30.70;77.10;;;;;;5056160;28;20079;-66
2022/08/06 12:43:31;;;;;;;4.65;3.45;;;31.40;74.40;;;;;;5073439;28;20047;-66
2022/08/06 12:46:18;;;;;;;4.40;3.50;;;31.20;73.70;;;;;;5067118;28;20463;-66
2022/08/06 12:48:49;;;;;;;4.00;3.60;;;31.70;72.90;;;;;;5076597;28;20063;-66
2022/08/06 12:51:18;;;;;;;4.40;3.45;;;32.00;71.30;;;;;;5072140;28;20188;-66
2022/08/06 12:53:55;;;;;;;3.83;3.50;;;31.90;68.90;;;;;;5085159;28;20051;-66
2022/08/06 12:56:27;;;;;;;4.03;3.65;;;31.90;70.30;;;;;;5083880;28;20040;-66
2022/08/06 12:59:04;;;;;;;4.70;3.88;;;32.30;68.00;;;;;;5073954;28;20035;-68
2022/08/06 13:01:34;;;;;;;4.20;3.80;;;32.20;67.60;;;;;;5082301;28;20051;-65
2022/08/06 13:04:23;;;;;;;3.70;3.40;;;31.80;66.40;;;;;;5071130;28;20510;-66
2022/08/06 13:06:59;;;;;;;3.63;3.25;;;31.40;67.10;;;;;;5075335;28;20036;-66
2022/08/06 13:09:30;;;;;;;5.40;3.40;;;31.10;65.90;;;;;;5067727;28;20370;-66
2022/08/06 13:12:15;;;;;;;5.40;3.40;;;31.60;65.40;;;;;;5070664;28;20070;-66
2022/08/06 13:14:56;;;;;;;5.60;3.70;;;32.20;64.80;;;;;;5065593;28;20043;-66
2022/08/06 13:17:35;;;;;;;3.40;3.10;;;32.50;62.70;;;;;;5070508;28;20326;-66
2022/08/06 13:20:25;;;;;;;3.70;3.30;;;32.00;62.80;;;;;;5062585;28;20040;-66
2022/08/06 13:22:59;;;;;;;4.03;3.63;;;32.40;60.30;;;;;;5067685;28;20131;-66
2022/08/06 13:25:26;;;;;;;3.60;3.30;;;32.10;60.70;;;;;;5070783;28;20080;-66
2022/08/06 13:28:16;;;;;;;3.83;3.53;;;32.30;62.20;;;;;;5062912;28;20047;-66
2022/08/06 13:30:49;;;;;;;4.00;3.58;;;32.90;60.30;;;;;;5081516;28;20421;-66
2022/08/06 13:33:25;;;;;;;3.95;3.55;;;33.40;59.70;;;;;;5068267;28;20082;-66
2022/08/06 13:36:06;;;;;;;4.85;3.40;;;33.30;58.90;;;;;;5059181;28;20399;-66
2022/08/06 13:38:35;;;;;;;3.88;3.53;;;33.20;60.00;;;;;;5063832;28;20033;-66
2022/08/06 13:41:08;;;;;;;4.60;3.58;;;33.80;60.80;;;;;;5064797;28;20123;-67
2022/08/06 13:43:44;;;;;;;4.18;3.70;;;34.80;59.40;;;;;;5076354;28;20286;-67
2022/08/06 13:46:27;;;;;;;4.43;3.70;;;35.50;59.00;;;;;;5065763;28;20398;-66
2022/08/06 13:49:00;;;;;;;4.13;3.72;;;36.40;57.10;;;;;;5066996;28;20076;-67
2022/08/06 13:51:38;;;;;;;3.83;3.53;;;37.30;55.90;;;;;;5058712;28;20037;-67
2022/08/06 13:54:22;;;;;;;4.00;3.60;;;38.80;53.40;;;;;;5072410;28;20033;-67
2022/08/06 13:56:51;;;;;;;4.05;3.65;;;39.50;52.20;;;;;;5072570;28;20498;-67